Time;durP1;ratioP1;P1;durP2;ratioP2;P2;SDS_P1;SDS_P2;PMS_P1;PMS_P2;Temp;Humidity;BMP_temperature;BMP_pressure;BME280_temperature;BME280_humidity;BME280_pressure;Samples;Min_cycle;Max_cycle;Signal;HPM_P1;HPM_P2
2023/01/07 00:01:01;;;;;;;1.80;1.70;;;11.50;99.90;;;;;;5036749;28;20454;-34
2023/01/07 00:03:27;;;;;;;1.93;1.73;;;11.50;99.90;;;;;;5046221;28;20779;-34
2023/01/07 00:06:01;;;;;;;2.53;2.30;;;11.50;99.90;;;;;;5036937;28;20440;-34
2023/01/07 00:08:31;;;;;;;2.23;2.03;;;11.50;99.90;;;;;;5047238;28;20751;-34
2023/01/07 00:11:03;;;;;;;2.00;1.70;;;11.50;99.90;;;;;;5048293;28;20566;-34
2023/01/07 00:13:30;;;;;;;1.50;1.40;;;11.50;99.90;;;;;;5049305;28;20456;-34
2023/01/07 00:16:04;;;;;;;1.90;1.40;;;11.40;99.90;;;;;;5049111;28;20904;-34
2023/01/07 00:18:30;;;;;;;2.53;1.50;;;11.50;99.90;;;;;;5048978;28;20898;-34
2023/01/07 00:21:01;;;;;;;1.90;1.37;;;11.50;99.90;;;;;;5046947;28;20521;-34
2023/01/07 00:23:28;;;;;;;1.90;1.33;;;11.50;99.90;;;;;;5047621;28;20424;-34
2023/01/07 00:26:01;;;;;;;1.77;1.67;;;11.50;99.90;;;;;;5040354;28;20413;-34
2023/01/07 00:28:27;;;;;;;1.47;1.37;;;11.50;99.90;;;;;;5029271;28;20436;-34
2023/01/07 00:31:01;;;;;;;1.73;1.53;;;11.50;99.90;;;;;;5030776;28;20421;-34
2023/01/07 00:33:27;;;;;;;1.83;1.60;;;11.50;99.90;;;;;;5032668;28;20185;-34
2023/01/07 00:36:20;;;;;;;1.97;1.40;;;11.50;99.90;;;;;;5053734;28;20411;-34
2023/01/07 00:38:46;;;;;;;1.97;1.10;;;11.50;99.90;;;;;;5071149;28;20189;-34
2023/01/07 00:41:11;;;;;;;2.73;1.57;;;11.50;99.90;;;;;;5072040;28;20408;-34
2023/01/07 00:43:37;;;;;;;1.27;1.17;;;11.50;99.90;;;;;;5051070;28;20174;-34
2023/01/07 00:46:03;;;;;;;1.80;1.20;;;11.50;99.90;;;;;;5052259;28;20210;-34
2023/01/07 00:48:29;;;;;;;1.40;1.17;;;11.50;99.90;;;;;;5052645;28;20181;-34
2023/01/07 00:50:55;;;;;;;2.40;1.83;;;11.50;99.90;;;;;;5051904;28;20186;-34
2023/01/07 00:53:21;;;;;;;2.00;1.17;;;11.50;99.90;;;;;;5052512;28;20204;-34
2023/01/07 00:55:48;;;;;;;4.70;1.30;;;11.50;99.90;;;;;;5052318;28;20432;-34
2023/01/07 00:58:18;;;;;;;1.80;1.07;;;11.50;99.90;;;;;;5050803;28;20549;-34
2023/01/07 01:00:43;;;;;;;1.00;0.90;;;11.50;99.90;;;;;;5049461;28;20404;-34
2023/01/07 01:03:12;;;;;;;1.70;1.33;;;11.50;99.90;;;;;;5052012;28;20478;-34
2023/01/07 01:05:38;;;;;;;1.17;1.07;;;11.50;99.90;;;;;;5051865;28;20201;-34
2023/01/07 01:08:04;;;;;;;1.77;1.20;;;11.50;99.90;;;;;;5051905;28;20814;-34
2023/01/07 01:10:30;;;;;;;1.33;1.23;;;11.50;99.90;;;;;;5046387;28;20427;-34
2023/01/07 01:12:56;;;;;;;2.07;1.10;;;11.50;99.90;;;;;;5051720;28;21146;-34
2023/01/07 01:15:21;;;;;;;1.23;1.13;;;11.60;99.90;;;;;;5052085;28;20201;-34
2023/01/07 01:17:50;;;;;;;0.90;0.90;;;11.50;99.90;;;;;;5034240;28;20280;-34
2023/01/07 01:20:16;;;;;;;1.40;1.30;;;11.50;99.90;;;;;;5050527;28;20185;-34
2023/01/07 01:22:42;;;;;;;1.13;1.03;;;11.50;99.90;;;;;;5051523;28;20961;-34
2023/01/07 01:25:09;;;;;;;1.03;0.93;;;11.50;99.90;;;;;;5051706;28;20432;-34
2023/01/07 01:27:35;;;;;;;1.50;1.10;;;11.50;99.90;;;;;;5051686;28;20448;-34
2023/01/07 01:30:01;;;;;;;1.40;1.30;;;11.50;99.90;;;;;;5051198;28;20423;-34
2023/01/07 01:32:27;;;;;;;1.40;1.20;;;11.50;99.90;;;;;;5051759;28;20269;-34
2023/01/07 01:34:53;;;;;;;1.23;0.93;;;11.50;99.90;;;;;;5045819;28;20429;-34
2023/01/07 01:37:19;;;;;;;1.60;1.50;;;11.50;99.90;;;;;;5051593;28;20427;-34
2023/01/07 01:39:44;;;;;;;1.30;1.00;;;11.50;99.90;;;;;;5049421;28;20174;-34
2023/01/07 01:42:15;;;;;;;1.50;1.20;;;11.50;99.90;;;;;;5051530;28;20439;-34
2023/01/07 01:44:51;;;;;;;1.13;1.00;;;11.50;99.90;;;;;;5051519;28;20251;-34
2023/01/07 01:47:39;;;;;;;0.90;0.90;;;11.50;99.90;;;;;;5051295;28;20455;-34
2023/01/07 01:50:20;;;;;;;0.73;0.73;;;11.50;99.90;;;;;;5050671;28;20404;-34
2023/01/07 01:52:51;;;;;;;1.10;0.80;;;11.50;99.90;;;;;;5051283;28;20899;-34
2023/01/07 01:55:21;;;;;;;1.10;1.00;;;11.50;99.90;;;;;;5051319;28;20404;-34
2023/01/07 01:57:50;;;;;;;1.50;1.00;;;11.50;99.90;;;;;;5049984;28;20420;-34
2023/01/07 02:00:15;;;;;;;1.97;1.10;;;11.50;99.90;;;;;;5046486;28;20428;-34
2023/01/07 02:02:50;;;;;;;0.97;0.90;;;11.60;99.90;;;;;;5049750;28;20931;-34
2023/01/07 02:05:16;;;;;;;2.13;1.37;;;11.60;99.90;;;;;;5051008;28;20209;-34
2023/01/07 02:07:42;;;;;;;1.93;1.00;;;11.60;99.90;;;;;;5050934;28;20456;-34
2023/01/07 02:10:15;;;;;;;0.90;0.90;;;11.60;99.90;;;;;;5047788;28;21079;-34
2023/01/07 02:13:16;;;;;;;1.80;1.13;;;11.60;99.90;;;;;;5050950;28;20213;-34
2023/01/07 02:15:51;;;;;;;1.57;0.80;;;11.60;99.90;;;;;;5050778;28;20500;-34
2023/01/07 02:18:28;;;;;;;1.93;0.80;;;11.50;99.90;;;;;;5049671;28;20923;-34
2023/01/07 02:21:16;;;;;;;1.00;0.83;;;11.60;99.90;;;;;;5048939;28;20443;-34
2023/01/07 02:24:12;;;;;;;1.20;1.10;;;11.50;99.90;;;;;;5050658;28;20416;-34
2023/01/07 02:26:53;;;;;;;0.90;0.73;;;11.50;99.90;;;;;;5049201;28;20513;-34
2023/01/07 02:29:46;;;;;;;3.07;1.00;;;11.50;99.90;;;;;;5050001;28;20444;-34
2023/01/07 02:32:20;;;;;;;1.30;0.93;;;11.50;99.90;;;;;;5050615;28;20404;-34
2023/01/07 02:35:23;;;;;;;1.20;1.10;;;11.50;99.90;;;;;;5051688;28;20408;-34
2023/01/07 02:37:49;;;;;;;0.80;0.70;;;11.50;99.90;;;;;;5070321;28;20415;-34
2023/01/07 02:40:52;;;;;;;1.33;0.70;;;11.60;99.90;;;;;;5069596;28;20408;-34
2023/01/07 02:43:29;;;;;;;1.63;1.10;;;11.50;99.90;;;;;;5048590;28;20189;-34
2023/01/07 02:46:14;;;;;;;0.80;0.70;;;11.50;99.90;;;;;;5048769;28;21067;-34
2023/01/07 02:48:40;;;;;;;0.80;0.77;;;11.50;99.90;;;;;;5050111;28;20423;-34
2023/01/07 02:51:06;;;;;;;1.60;1.47;;;11.50;99.90;;;;;;5049792;28;20413;-34
2023/01/07 02:53:32;;;;;;;1.17;0.90;;;11.50;99.90;;;;;;5049815;28;20411;-34
2023/01/07 02:56:17;;;;;;;0.80;0.80;;;11.50;99.90;;;;;;5044435;28;20698;-34
2023/01/07 02:59:23;;;;;;;0.87;0.70;;;11.50;99.90;;;;;;5049896;28;20425;-34
2023/01/07 03:02:22;;;;;;;0.70;0.60;;;11.50;99.90;;;;;;5050010;28;20400;-34
2023/01/07 03:05:25;;;;;;;0.87;0.83;;;11.50;99.90;;;;;;5049356;28;20503;-34
2023/01/07 03:08:06;;;;;;;1.47;0.60;;;11.50;99.90;;;;;;5048484;28;20448;-34
2023/01/07 03:10:50;;;;;;;2.93;0.70;;;11.50;99.90;;;;;;5048624;28;20424;-34
2023/01/07 03:13:19;;;;;;;1.23;0.70;;;11.50;99.90;;;;;;5043199;28;20439;-34
2023/01/07 03:15:52;;;;;;;0.70;0.60;;;11.50;99.90;;;;;;5049725;28;20416;-34
2023/01/07 03:18:26;;;;;;;1.00;0.63;;;11.50;99.90;;;;;;5049724;28;20405;-35
2023/01/07 03:20:57;;;;;;;1.53;1.13;;;11.50;99.90;;;;;;5048324;28;20411;-34
2023/01/07 03:23:25;;;;;;;1.50;0.83;;;11.50;99.90;;;;;;5049761;28;20443;-34
2023/01/07 03:25:53;;;;;;;0.93;0.70;;;11.50;99.90;;;;;;5048179;28;20920;-34
2023/01/07 03:28:26;;;;;;;0.90;0.80;;;11.40;99.90;;;;;;5049626;28;20977;-34
2023/01/07 03:30:54;;;;;;;1.30;0.90;;;11.40;99.90;;;;;;5047078;28;20798;-33
2023/01/07 03:33:26;;;;;;;1.67;1.00;;;11.50;99.90;;;;;;5049548;28;20416;-33
2023/01/07 03:35:53;;;;;;;1.00;0.73;;;11.40;99.90;;;;;;5050154;28;20439;-34
2023/01/07 03:38:21;;;;;;;0.90;0.80;;;11.50;99.90;;;;;;5049649;28;20424;-34
2023/01/07 03:40:47;;;;;;;1.27;0.90;;;11.40;99.90;;;;;;5048788;28;20450;-34
2023/01/07 03:43:16;;;;;;;1.17;0.97;;;11.50;99.90;;;;;;5046178;28;20866;-34
2023/01/07 03:45:42;;;;;;;1.37;0.80;;;11.50;99.90;;;;;;5049561;28;20416;-34
2023/01/07 03:48:08;;;;;;;1.13;0.90;;;11.50;99.90;;;;;;5049645;28;20500;-34
2023/01/07 03:50:33;;;;;;;1.07;0.73;;;11.50;99.90;;;;;;5047564;28;20939;-34
2023/01/07 03:52:59;;;;;;;1.00;0.90;;;11.50;99.90;;;;;;5049634;28;20664;-34
2023/01/07 03:55:25;;;;;;;1.17;1.07;;;11.50;99.90;;;;;;5049286;28;20193;-34
2023/01/07 03:57:50;;;;;;;0.70;0.70;;;11.50;99.90;;;;;;5049674;28;20190;-34
2023/01/07 04:00:16;;;;;;;1.57;1.00;;;11.40;99.90;;;;;;5046436;28;20190;-34
2023/01/07 04:02:42;;;;;;;0.80;0.80;;;11.40;99.90;;;;;;5048088;28;20192;-34
2023/01/07 04:05:09;;;;;;;1.30;1.00;;;11.40;99.90;;;;;;5050643;28;20436;-34
2023/01/07 04:07:35;;;;;;;1.10;1.00;;;11.30;99.90;;;;;;5053109;28;20452;-33
2023/01/07 04:10:01;;;;;;;1.07;0.97;;;11.30;99.90;;;;;;5052281;28;20412;-33
2023/01/07 04:12:27;;;;;;;2.60;1.20;;;11.40;99.90;;;;;;5051954;28;20985;-33
2023/01/07 04:14:52;;;;;;;2.30;0.90;;;11.40;99.90;;;;;;5053115;28;20713;-33
2023/01/07 04:17:18;;;;;;;1.03;0.90;;;11.40;99.90;;;;;;5053075;28;20182;-33
2023/01/07 04:19:44;;;;;;;1.30;1.00;;;11.40;99.90;;;;;;5051389;28;20240;-34
2023/01/07 04:22:10;;;;;;;1.40;1.30;;;11.40;99.90;;;;;;5052915;28;20190;-34
2023/01/07 04:24:36;;;;;;;0.90;0.90;;;11.30;99.90;;;;;;5046950;28;20435;-34
2023/01/07 04:27:02;;;;;;;1.10;1.00;;;11.30;99.90;;;;;;5052722;28;20554;-34
2023/01/07 04:29:28;;;;;;;1.47;1.13;;;11.30;99.90;;;;;;5052287;28;20205;-34
2023/01/07 04:31:53;;;;;;;1.43;0.90;;;11.30;99.90;;;;;;5052799;28;20448;-34
2023/01/07 04:34:19;;;;;;;0.80;0.80;;;11.30;99.90;;;;;;5052885;28;20469;-34
2023/01/07 04:36:45;;;;;;;0.80;0.70;;;11.30;99.90;;;;;;5052591;28;20193;-33
2023/01/07 04:39:11;;;;;;;1.10;1.00;;;11.30;99.90;;;;;;5051963;28;20213;-33
2023/01/07 04:41:37;;;;;;;1.60;1.50;;;11.20;99.90;;;;;;5052718;28;20197;-33
2023/01/07 04:44:03;;;;;;;1.07;1.00;;;11.20;99.90;;;;;;5052625;28;20427;-33
2023/01/07 04:46:29;;;;;;;1.50;0.90;;;11.20;99.90;;;;;;5051289;28;20911;-33
2023/01/07 04:48:54;;;;;;;0.90;0.90;;;11.20;99.90;;;;;;5052453;28;20424;-33
2023/01/07 04:51:20;;;;;;;1.33;1.17;;;11.20;99.90;;;;;;5051789;28;20728;-33
2023/01/07 04:53:46;;;;;;;1.27;1.03;;;11.20;99.90;;;;;;5052254;28;20178;-33
2023/01/07 04:56:12;;;;;;;1.10;1.00;;;11.10;99.90;;;;;;5047219;28;20205;-33
2023/01/07 04:58:38;;;;;;;1.67;1.03;;;11.10;99.90;;;;;;5051029;28;20412;-33
2023/01/07 05:01:05;;;;;;;2.00;1.47;;;11.10;99.90;;;;;;5051738;28;20503;-33
2023/01/07 05:03:33;;;;;;;1.37;1.20;;;11.10;99.90;;;;;;5050831;28;20423;-33
2023/01/07 05:05:59;;;;;;;1.40;1.20;;;11.10;99.90;;;;;;5051783;28;20459;-34
2023/01/07 05:08:25;;;;;;;1.47;1.17;;;11.00;99.90;;;;;;5052053;28;20417;-33
2023/01/07 05:10:51;;;;;;;1.80;1.43;;;11.00;99.90;;;;;;5051538;28;20471;-33
2023/01/07 05:13:18;;;;;;;1.70;1.50;;;11.00;99.90;;;;;;5052133;28;20710;-33
2023/01/07 05:15:44;;;;;;;2.57;1.20;;;11.00;99.90;;;;;;5051662;28;20420;-33
2023/01/07 05:18:10;;;;;;;1.47;1.37;;;11.00;99.90;;;;;;5051959;28;20416;-33
2023/01/07 05:20:36;;;;;;;1.30;1.20;;;11.00;99.90;;;;;;5050231;28;21138;-33
2023/01/07 05:23:03;;;;;;;1.37;1.20;;;11.00;99.90;;;;;;5052016;28;20219;-33
2023/01/07 05:25:29;;;;;;;2.70;1.67;;;11.00;99.90;;;;;;5051544;28;20264;-33
2023/01/07 05:27:54;;;;;;;1.73;1.40;;;11.00;99.90;;;;;;5050787;28;20463;-33
2023/01/07 05:30:20;;;;;;;1.40;1.30;;;11.00;99.90;;;;;;5051056;28;20185;-33
2023/01/07 05:32:46;;;;;;;1.30;1.10;;;11.00;99.90;;;;;;5051669;28;20178;-33
2023/01/07 05:35:11;;;;;;;2.00;1.50;;;10.90;99.90;;;;;;5050127;28;20656;-33
2023/01/07 05:37:37;;;;;;;1.20;1.10;;;10.90;99.90;;;;;;5051747;28;20887;-34
2023/01/07 05:40:03;;;;;;;1.40;1.30;;;10.90;99.90;;;;;;5050802;28;20185;-33
2023/01/07 05:42:29;;;;;;;3.40;1.63;;;10.90;99.90;;;;;;5051611;28;20182;-33
2023/01/07 05:44:55;;;;;;;1.70;1.50;;;10.90;99.90;;;;;;5051366;28;20758;-33
2023/01/07 05:47:21;;;;;;;1.40;1.30;;;10.90;99.90;;;;;;5051347;28;20545;-33
2023/01/07 05:49:46;;;;;;;1.40;1.30;;;10.80;99.90;;;;;;5050570;28;20196;-33
2023/01/07 05:52:12;;;;;;;1.53;1.43;;;10.80;99.90;;;;;;5051334;28;20184;-33
2023/01/07 05:54:37;;;;;;;2.20;1.37;;;10.80;99.90;;;;;;5048880;28;20186;-33
2023/01/07 05:57:03;;;;;;;1.70;1.20;;;10.80;99.90;;;;;;5051172;28;20216;-33
2023/01/07 05:59:29;;;;;;;2.07;1.30;;;10.80;99.90;;;;;;5050757;28;20189;-33
2023/01/07 06:01:54;;;;;;;2.70;1.63;;;10.80;99.90;;;;;;5047685;28;20197;-33
2023/01/07 06:04:20;;;;;;;1.50;1.40;;;10.80;99.90;;;;;;5050749;28;20186;-33
2023/01/07 06:06:46;;;;;;;1.83;1.50;;;10.80;99.90;;;;;;5050899;28;20241;-33
2023/01/07 06:09:11;;;;;;;4.63;1.47;;;10.80;99.90;;;;;;5044960;28;20190;-33
2023/01/07 06:11:37;;;;;;;1.67;1.30;;;10.80;99.90;;;;;;5050660;28;20224;-33
2023/01/07 06:14:02;;;;;;;2.03;1.40;;;10.80;99.90;;;;;;5050676;28;20779;-33
2023/01/07 06:16:28;;;;;;;1.70;1.50;;;10.70;99.90;;;;;;5050756;28;20186;-33
2023/01/07 06:18:54;;;;;;;2.40;1.80;;;10.70;99.90;;;;;;5050198;28;20201;-33
2023/01/07 06:21:20;;;;;;;1.47;1.37;;;10.70;99.90;;;;;;5049017;28;20186;-33
2023/01/07 06:23:46;;;;;;;1.33;1.23;;;10.70;99.90;;;;;;5050832;28;20679;-33
2023/01/07 06:26:11;;;;;;;1.80;1.63;;;10.70;99.90;;;;;;5050434;28;20515;-33
2023/01/07 06:28:37;;;;;;;1.20;1.10;;;10.70;99.90;;;;;;5049949;28;20185;-33
2023/01/07 06:31:03;;;;;;;1.90;1.40;;;10.70;99.90;;;;;;5050098;28;20189;-33
2023/01/07 06:33:28;;;;;;;1.97;1.30;;;10.70;99.90;;;;;;5050440;28;20209;-33
2023/01/07 06:35:54;;;;;;;2.40;1.30;;;10.70;99.90;;;;;;5061057;28;20697;-33
2023/01/07 06:38:20;;;;;;;1.47;1.37;;;10.70;99.90;;;;;;5065276;28;20802;-33
2023/01/07 06:40:45;;;;;;;1.60;1.50;;;10.70;99.90;;;;;;5046819;28;20189;-33
2023/01/07 06:43:11;;;;;;;1.90;1.70;;;10.70;99.90;;;;;;5050423;28;20188;-33
2023/01/07 06:45:36;;;;;;;2.60;1.90;;;10.80;99.90;;;;;;5050542;28;20190;-33
2023/01/07 06:48:02;;;;;;;1.73;1.63;;;10.80;99.90;;;;;;5050036;28;20213;-33
2023/01/07 06:50:28;;;;;;;2.00;1.43;;;10.80;99.90;;;;;;5049727;28;20523;-33
2023/01/07 06:52:55;;;;;;;1.73;1.23;;;10.80;99.90;;;;;;5048670;28;20232;-33
2023/01/07 06:55:21;;;;;;;1.90;1.63;;;10.80;99.90;;;;;;5039537;28;20274;-33
2023/01/07 06:57:47;;;;;;;1.87;1.53;;;10.80;99.90;;;;;;5046132;28;20678;-34
2023/01/07 07:00:13;;;;;;;2.23;1.80;;;10.80;99.90;;;;;;5049121;28;20427;-33
2023/01/07 07:02:39;;;;;;;1.60;1.50;;;10.80;99.90;;;;;;5049984;28;20257;-34
2023/01/07 07:05:05;;;;;;;2.50;1.90;;;10.80;99.90;;;;;;5049832;28;20555;-33
2023/01/07 07:07:30;;;;;;;1.90;1.53;;;10.80;99.90;;;;;;5049905;28;20328;-33
2023/01/07 07:09:56;;;;;;;1.43;1.13;;;10.80;99.90;;;;;;5049356;28;20462;-33
2023/01/07 07:12:22;;;;;;;1.60;1.40;;;10.80;99.90;;;;;;5050125;28;20265;-33
2023/01/07 07:14:47;;;;;;;1.40;1.30;;;10.80;99.90;;;;;;5049841;28;20239;-33
2023/01/07 07:17:13;;;;;;;1.40;1.30;;;10.80;99.90;;;;;;5049777;28;20707;-33
2023/01/07 07:19:39;;;;;;;1.10;1.00;;;10.80;99.90;;;;;;5048522;28;20288;-33
2023/01/07 07:22:04;;;;;;;1.30;1.20;;;10.80;99.90;;;;;;5042456;28;20738;-33
2023/01/07 07:24:30;;;;;;;1.27;1.17;;;10.80;99.90;;;;;;5049671;28;20247;-33
2023/01/07 07:26:56;;;;;;;1.43;1.30;;;10.80;99.90;;;;;;5049832;28;20213;-33
2023/01/07 07:29:21;;;;;;;2.00;1.33;;;10.80;99.90;;;;;;5043133;28;20212;-33
2023/01/07 07:31:47;;;;;;;1.37;1.20;;;10.80;99.90;;;;;;5046056;28;20239;-33
2023/01/07 07:34:13;;;;;;;2.63;1.20;;;10.80;99.90;;;;;;5049663;28;20879;-33
2023/01/07 07:36:38;;;;;;;1.83;1.03;;;10.80;99.90;;;;;;5049844;28;20220;-33
2023/01/07 07:39:04;;;;;;;0.87;0.87;;;10.80;99.90;;;;;;5050772;28;20219;-33
2023/01/07 07:41:30;;;;;;;1.20;1.10;;;10.90;99.90;;;;;;5051158;28;20680;-33
2023/01/07 07:43:56;;;;;;;1.50;0.90;;;10.90;99.90;;;;;;5053686;28;20408;-33
2023/01/07 07:46:21;;;;;;;1.50;1.10;;;10.90;99.90;;;;;;5053053;28;20218;-33
2023/01/07 07:48:48;;;;;;;1.57;1.03;;;10.90;99.90;;;;;;5053828;28;20186;-33
2023/01/07 07:51:13;;;;;;;1.53;1.20;;;10.90;99.90;;;;;;5053051;28;20181;-33
2023/01/07 07:53:39;;;;;;;1.40;1.10;;;10.90;99.90;;;;;;5053533;28;20767;-33
2023/01/07 07:56:08;;;;;;;1.20;1.10;;;10.80;99.90;;;;;;5051346;28;20185;-33
2023/01/07 07:58:35;;;;;;;1.13;1.03;;;10.90;99.90;;;;;;5050336;28;20190;-33
2023/01/07 08:01:01;;;;;;;1.00;0.80;;;10.90;99.90;;;;;;5052019;28;20431;-33
2023/01/07 08:03:27;;;;;;;1.20;0.90;;;10.80;99.90;;;;;;5050443;28;20421;-33
2023/01/07 08:05:52;;;;;;;1.30;1.00;;;10.80;99.90;;;;;;5043916;28;20600;-33
2023/01/07 08:08:18;;;;;;;2.33;1.53;;;10.90;99.90;;;;;;5044956;28;20578;-33
2023/01/07 08:10:44;;;;;;;1.13;1.00;;;10.90;99.90;;;;;;5043313;28;20193;-33
2023/01/07 08:13:09;;;;;;;1.30;1.10;;;10.90;99.90;;;;;;5049221;28;20556;-33
2023/01/07 08:15:35;;;;;;;1.10;1.00;;;10.90;99.90;;;;;;5044437;28;20267;-33
2023/01/07 08:18:07;;;;;;;1.70;1.00;;;10.90;99.90;;;;;;5052981;28;20193;-33
2023/01/07 08:20:34;;;;;;;1.90;0.83;;;10.90;99.90;;;;;;5051294;28;20423;-33
2023/01/07 08:23:01;;;;;;;2.73;1.07;;;10.90;99.90;;;;;;5043532;28;20431;-33
2023/01/07 08:25:28;;;;;;;2.00;1.00;;;10.90;99.90;;;;;;5041300;28;20413;-33
2023/01/07 08:27:55;;;;;;;0.90;0.90;;;10.90;99.90;;;;;;5041674;28;20451;-33
2023/01/07 08:30:22;;;;;;;1.20;0.90;;;10.90;99.90;;;;;;5040821;28;20424;-33
2023/01/07 08:32:47;;;;;;;1.87;1.00;;;10.90;99.90;;;;;;5043118;28;20437;-33
2023/01/07 08:35:14;;;;;;;3.27;0.97;;;10.90;99.90;;;;;;5047387;28;20427;-33
2023/01/07 08:37:41;;;;;;;1.10;1.00;;;10.90;99.90;;;;;;5043663;28;20216;-33
2023/01/07 08:40:07;;;;;;;1.10;1.00;;;10.90;99.90;;;;;;5044921;28;20474;-33
2023/01/07 08:42:33;;;;;;;1.20;1.00;;;11.00;99.90;;;;;;5052532;28;20416;-33
2023/01/07 08:44:58;;;;;;;1.20;1.10;;;11.00;99.90;;;;;;5039094;28;20437;-33
2023/01/07 08:47:27;;;;;;;2.87;1.00;;;11.00;99.90;;;;;;5032380;28;20229;-33
2023/01/07 08:49:54;;;;;;;1.20;1.10;;;11.00;99.90;;;;;;5031705;28;20186;-33
2023/01/07 08:52:20;;;;;;;1.43;1.00;;;11.00;99.90;;;;;;5041265;28;20789;-33
2023/01/07 08:54:46;;;;;;;1.70;0.77;;;10.90;99.90;;;;;;5032989;28;20416;-33
2023/01/07 08:57:12;;;;;;;0.90;0.90;;;10.90;99.90;;;;;;5040554;28;20814;-33
2023/01/07 08:59:39;;;;;;;0.90;0.90;;;10.90;99.90;;;;;;5044715;28;20432;-33
2023/01/07 09:02:09;;;;;;;2.63;1.10;;;10.90;99.90;;;;;;5031563;28;20190;-33
2023/01/07 09:04:35;;;;;;;1.53;1.43;;;10.90;99.90;;;;;;5030808;28;20417;-33
2023/01/07 09:07:00;;;;;;;1.73;0.90;;;11.00;99.90;;;;;;5031799;28;20543;-33
2023/01/07 09:09:26;;;;;;;1.20;1.10;;;11.00;99.90;;;;;;5032203;28;20202;-33
2023/01/07 09:11:52;;;;;;;1.70;1.03;;;11.00;99.90;;;;;;5036069;28;20220;-33
2023/01/07 09:14:17;;;;;;;2.80;1.20;;;10.90;99.90;;;;;;5048786;28;20269;-33
2023/01/07 09:16:43;;;;;;;1.20;1.00;;;11.00;99.90;;;;;;5039170;28;20194;-33
2023/01/07 09:19:09;;;;;;;2.30;1.00;;;11.00;99.90;;;;;;5037248;28;20661;-33
2023/01/07 09:21:34;;;;;;;0.87;0.87;;;11.00;99.90;;;;;;5040826;28;20277;-33
2023/01/07 09:24:00;;;;;;;1.53;1.27;;;11.00;99.90;;;;;;5045621;28;20194;-33
2023/01/07 09:26:26;;;;;;;1.33;1.10;;;11.00;99.90;;;;;;5019617;28;20222;-33
2023/01/07 09:28:51;;;;;;;2.50;1.00;;;11.00;99.90;;;;;;5046873;28;20186;-33
2023/01/07 09:31:17;;;;;;;1.60;1.10;;;11.00;99.90;;;;;;5046077;28;20243;-33
2023/01/07 09:33:43;;;;;;;2.07;1.07;;;11.00;99.90;;;;;;5043126;28;20186;-33
2023/01/07 09:36:08;;;;;;;2.00;1.00;;;11.00;99.90;;;;;;5037591;28;20282;-33
2023/01/07 09:38:34;;;;;;;1.90;1.10;;;11.00;99.90;;;;;;5030513;28;20683;-33
2023/01/07 09:41:00;;;;;;;1.60;0.83;;;11.00;99.90;;;;;;5035018;28;20189;-33
2023/01/07 09:43:41;;;;;;;1.20;1.10;;;11.00;99.90;;;;;;5048128;28;20200;-33
2023/01/07 09:46:10;;;;;;;1.80;1.13;;;11.00;99.90;;;;;;5041433;28;20192;-33
2023/01/07 09:48:44;;;;;;;2.40;1.07;;;11.00;99.90;;;;;;5049297;28;20439;-33
2023/01/07 09:51:22;;;;;;;1.13;0.97;;;11.00;99.90;;;;;;5040499;28;20420;-33
2023/01/07 09:53:51;;;;;;;2.20;1.20;;;11.00;99.90;;;;;;5036510;28;20941;-33
2023/01/07 09:56:25;;;;;;;1.10;0.93;;;11.00;99.90;;;;;;5044803;28;20507;-33
2023/01/07 09:58:53;;;;;;;1.53;1.10;;;11.00;99.90;;;;;;5042760;28;20632;-33
2023/01/07 10:01:25;;;;;;;2.33;1.20;;;11.10;99.90;;;;;;5044021;28;20408;-33
2023/01/07 10:04:24;;;;;;;1.93;1.30;;;11.00;99.90;;;;;;5031525;28;20529;-33
2023/01/07 10:06:57;;;;;;;1.80;1.23;;;11.00;99.90;;;;;;5041080;28;20989;-33
2023/01/07 10:09:57;;;;;;;1.93;1.00;;;11.00;99.90;;;;;;5038015;28;20453;-33
2023/01/07 10:12:28;;;;;;;2.00;1.03;;;11.00;99.90;;;;;;5041890;28;20424;-33
2023/01/07 10:15:22;;;;;;;1.87;1.27;;;11.00;99.90;;;;;;5041462;28;20430;-33
2023/01/07 10:18:24;;;;;;;2.23;1.50;;;11.00;99.90;;;;;;5043966;28;20805;-33
2023/01/07 10:20:58;;;;;;;1.57;1.40;;;11.00;99.90;;;;;;5043159;28;20434;-33
2023/01/07 10:23:31;;;;;;;1.70;1.60;;;11.10;99.90;;;;;;5043709;28;20397;-33
2023/01/07 10:26:00;;;;;;;1.73;1.43;;;11.10;99.90;;;;;;5045980;28;20436;-33
2023/01/07 10:28:39;;;;;;;2.60;1.50;;;11.20;99.90;;;;;;5044176;28;20456;-33
2023/01/07 10:31:10;;;;;;;1.97;1.80;;;11.20;99.90;;;;;;5041123;28;20417;-33
2023/01/07 10:33:38;;;;;;;2.40;1.63;;;11.30;99.90;;;;;;5036859;28;20930;-33
2023/01/07 10:36:13;;;;;;;2.40;2.00;;;11.30;99.90;;;;;;5048609;28;20981;-33
2023/01/07 10:38:41;;;;;;;2.23;2.03;;;11.40;99.90;;;;;;5050041;28;20459;-33
2023/01/07 10:41:53;;;;;;;2.40;2.13;;;11.40;99.90;;;;;;5035832;28;20439;-33
2023/01/07 10:44:22;;;;;;;2.70;2.40;;;11.50;99.90;;;;;;5000173;28;20435;-33
2023/01/07 10:47:15;;;;;;;2.53;2.10;;;11.50;99.90;;;;;;5042306;28;20456;-33
2023/01/07 10:49:40;;;;;;;2.07;1.97;;;11.60;99.90;;;;;;5043000;28;20421;-33
2023/01/07 10:52:22;;;;;;;3.23;2.37;;;11.70;99.90;;;;;;5032472;28;20493;-33
2023/01/07 10:54:59;;;;;;;2.57;2.37;;;11.80;99.90;;;;;;5030121;28;20609;-33
2023/01/07 10:57:28;;;;;;;3.30;2.37;;;11.90;99.90;;;;;;5030139;28;20969;-34
2023/01/07 10:59:57;;;;;;;2.67;2.30;;;12.00;99.90;;;;;;5029548;28;20858;-33
2023/01/07 11:02:27;;;;;;;2.30;2.10;;;12.20;99.90;;;;;;5029693;28;20421;-33
2023/01/07 11:04:54;;;;;;;2.27;2.07;;;12.30;99.90;;;;;;5028283;28;20449;-33
2023/01/07 11:07:28;;;;;;;2.60;2.17;;;12.30;99.90;;;;;;5028438;28;20592;-33
2023/01/07 11:09:55;;;;;;;2.60;2.40;;;12.40;99.90;;;;;;5027662;28;20430;-33
2023/01/07 11:12:41;;;;;;;3.20;2.40;;;12.50;99.90;;;;;;5032191;28;20436;-33
2023/01/07 11:15:20;;;;;;;2.47;2.27;;;12.60;99.90;;;;;;5039839;28;20443;-33
2023/01/07 11:17:55;;;;;;;2.40;2.07;;;12.70;99.90;;;;;;5037776;28;20479;-33
2023/01/07 11:20:43;;;;;;;2.60;2.30;;;12.70;99.90;;;;;;5045300;28;20494;-33
2023/01/07 11:23:28;;;;;;;2.37;2.17;;;12.70;99.90;;;;;;5044523;28;20459;-33
2023/01/07 11:26:12;;;;;;;2.33;1.77;;;12.70;99.90;;;;;;5040020;28;20428;-33
2023/01/07 11:29:14;;;;;;;2.33;2.13;;;12.60;99.90;;;;;;5047326;28;20939;-33
2023/01/07 11:31:51;;;;;;;4.37;2.07;;;12.80;99.90;;;;;;5042047;28;20490;-33
2023/01/07 11:34:44;;;;;;;22.47;6.00;;;13.10;99.90;;;;;;5036353;28;20503;-34
2023/01/07 11:37:10;;;;;;;30.90;4.93;;;13.00;99.90;;;;;;5035961;28;20419;-33
2023/01/07 11:39:36;;;;;;;373.73;32.70;;;13.00;99.90;;;;;;5033714;28;20429;-35
2023/01/07 11:45:10;;;;;;;4.47;2.43;;;12.90;99.90;;;;;;5036457;28;20538;-35
2023/01/07 11:47:38;;;;;;;2.13;1.93;;;12.70;99.90;;;;;;5048205;28;20530;-34
2023/01/07 11:50:04;;;;;;;2.10;1.67;;;12.60;99.90;;;;;;5047607;28;20477;-34
2023/01/07 11:52:31;;;;;;;2.90;1.93;;;12.40;99.90;;;;;;5049340;28;20865;-34
2023/01/07 11:54:57;;;;;;;4.30;1.87;;;12.40;99.90;;;;;;5049447;28;20424;-34
2023/01/07 11:57:25;;;;;;;2.20;1.93;;;12.20;99.90;;;;;;5049570;28;20474;-35
2023/01/07 12:00:16;;;;;;;2.43;1.80;;;12.20;99.90;;;;;;5048946;28;20232;-34
2023/01/07 12:02:42;;;;;;;2.03;1.83;;;12.10;99.90;;;;;;5048291;28;20420;-34
2023/01/07 12:05:21;;;;;;;1.60;1.50;;;12.00;99.90;;;;;;5049260;28;20444;-34
2023/01/07 12:07:49;;;;;;;1.80;1.70;;;11.90;99.90;;;;;;5049276;28;20970;-34
2023/01/07 12:10:33;;;;;;;2.63;1.67;;;11.80;99.90;;;;;;5048835;28;20416;-35
2023/01/07 12:13:01;;;;;;;1.40;1.13;;;11.80;99.90;;;;;;5049303;28;20413;-34
2023/01/07 12:15:37;;;;;;;1.60;1.50;;;11.70;99.90;;;;;;5049383;28;20432;-34
2023/01/07 12:18:06;;;;;;;2.10;1.40;;;11.70;99.90;;;;;;5048159;28;20420;-35
2023/01/07 12:21:10;;;;;;;2.43;1.73;;;11.70;99.90;;;;;;5047324;28;20964;-34
2023/01/07 12:23:57;;;;;;;1.93;1.70;;;12.00;99.90;;;;;;5048663;28;20431;-34
2023/01/07 12:26:49;;;;;;;1.70;1.60;;;12.10;99.90;;;;;;5050861;28;20420;-34
2023/01/07 12:29:37;;;;;;;1.97;1.50;;;12.20;99.90;;;;;;5044471;28;20966;-34
2023/01/07 12:32:19;;;;;;;1.50;1.40;;;12.10;99.90;;;;;;5051972;28;20428;-34
2023/01/07 12:35:24;;;;;;;1.50;1.30;;;11.90;99.90;;;;;;5051184;28;20424;-34
2023/01/07 12:38:02;;;;;;;2.63;1.50;;;11.90;99.90;;;;;;5052816;28;20431;-34
2023/01/07 12:40:37;;;;;;;1.33;1.23;;;11.70;99.90;;;;;;5051978;28;20423;-34
2023/01/07 12:43:11;;;;;;;1.33;1.23;;;11.70;99.90;;;;;;5052715;28;20765;-34
2023/01/07 12:45:56;;;;;;;1.87;1.43;;;11.70;99.90;;;;;;5052441;28;20495;-34
2023/01/07 12:48:50;;;;;;;1.50;1.30;;;11.60;99.90;;;;;;5049389;28;20601;-34
2023/01/07 12:51:27;;;;;;;1.40;1.30;;;11.60;99.90;;;;;;5052059;28;20431;-34
2023/01/07 12:54:35;;;;;;;1.53;1.27;;;11.60;99.90;;;;;;5052533;28;20431;-34
2023/01/07 12:57:15;;;;;;;1.50;1.40;;;11.60;99.90;;;;;;5050588;28;20547;-34
2023/01/07 12:59:45;;;;;;;1.83;1.73;;;11.50;99.90;;;;;;5047481;28;20451;-34
2023/01/07 13:02:28;;;;;;;2.90;1.40;;;11.50;99.90;;;;;;5051874;28;20507;-34
2023/01/07 13:05:09;;;;;;;1.30;1.10;;;11.50;99.90;;;;;;5052108;28;20523;-34
2023/01/07 13:08:00;;;;;;;1.50;1.20;;;11.40;99.90;;;;;;5052142;28;20464;-34